Terminal Aerodrome Forecast
Issued by NWS Austin/San Antonio, TX

Home | Current Version | Previous Version | Text Only | Print | Product List | Glossary On
Versions: 1 2 3 4 5 6 7 8 9 10 11 12 13 14 15 16 17 18 19 20 21 22 23 24 25 26 27 28
000
FTUS44 KEWX 231403 AAA
TAFSAT
TAF AMD
KSAT 231403Z 2314/2418 16010KT P6SM VCSH BKN009 BKN020 BKN080
     FM231600 15009KT 6SM BR VCTS BKN010CB OVC035
     FM232000 15013KT P6SM VCSH BKN030 BKN050
     FM240200 12006KT 3SM TSRA BR OVC015CB
     FM241000 14008KT 3SM -SHRA BR OVC006=

USA.gov is the U.S. government's official web portal to all federal, state and local government web resources and services.